Аэропорт: Астана. Астана

ICAO: UACC

METAR:
2018/07/16 20:00
UACC 162000Z 05006MPS CAVOK 17/10 Q1011 R04/0///70 NOSIG RMK QFE727/0969
METAR:
2018/07/16 18:18
TAF UACC 161700Z 1618/1718 05006MPS CAVOK TX27/1710Z TN13/1623Z 
     FM170500 06006MPS 9999 SCT040CB BKN100 
      TEMPO 1705/1713 05007G12MPS